Flight Track Log - Related Links

Times and Time Zones

All times are in EST time to prevent confusion due to time zone crossing. See the N96CB flight status page for this flight to view local times or setup timezone preferences in your user account.

Time Position Orientation Groundspeed Altitude Reporting Facility
EST Latitude Longitude Course Direction KTS MPH feet Rate Location/Type
Sun 14:31:17 31.3203 -85.4508 137° Southeast 79 91 700  Level Jacksonville Center
Sun 14:32:23 31.2997 -85.4283 137° Southeast 84 97 1,600 677 Climbing Jacksonville Center
Sun 14:33:30 31.2836 -85.4036 127° Southeast 84 97 2,200 563 Climbing Jacksonville Center
Sun 14:34:31 31.2694 -85.3839 130° Southeast 87 100 2,800 595 Climbing Jacksonville Center
Sun 14:35:31 31.2508 -85.3639 137° Southeast 87 100 3,400 545 Climbing Jacksonville Center
Sun 14:36:32 31.2325 -85.3464 141° Southeast 88 101 3,900 541 Climbing Jacksonville Center
Sun 14:37:44 31.2100 -85.3217 137° Southeast 88 101 4,600 567 Climbing Jacksonville Center
Sun 14:38:39 31.1936 -85.3042 138° Southeast 87 100 5,100 491 Climbing Jacksonville Center
Sun 14:39:34 31.1772 -85.2917 147° Southeast 83 96 5,500 545 Climbing Jacksonville Center
Sun 14:40:40 31.1567 -85.2742 144° Southeast 80 92 6,200 520 Climbing Jacksonville Center
Sun 14:41:41 31.1403 -85.2567 138° Southeast 82 94 6,600 440 Climbing Jacksonville Center
Sun 14:42:29 31.1239 -85.2417 142° Southeast 85 98 7,000 440 Climbing Jacksonville Center
Sun 14:43:30 31.1053 -85.2242 141° Southeast 86 99 7,400 466 Climbing Jacksonville Center
Sun 14:44:25 31.0889 -85.2092 142° Southeast 85 98 7,900 198 Climbing Jacksonville Center
Sun 14:46:32 31.0292 -85.1739 153° Southeast 145 167 8,000  Climbing Jacksonville Center
Sun 14:47:32 30.9983 -85.1417 138° Southeast 162 186 7,900 -50 Descending Jacksonville Center
Sun 14:48:33 30.9675 -85.1069 136° Southeast 154 177 7,900  Level Jacksonville Center
Sun 14:49:33 30.9367 -85.0797 143° Southeast 146 168 7,900 51 Level Jacksonville Center
Sun 15:14:01 30.1828 -84.3775 142° Southeast 167 192 9,200 86 Climbing Jacksonville Center
Sun 15:15:00 30.1326 -84.3226 141° Southeast  Level FlightAware Approximate
Sun 15:15:01 30.1642 -84.3483 126° Southeast 157 181 10,100  Level Jacksonville Center
Sun 15:16:00 30.1019 -84.2940 141° Southeast  Level FlightAware Approximate
Sun 15:16:01 30.1458 -84.3267 134° Southeast 122 140 10,400  Level Jacksonville Center
Sun 15:17:00 30.0713 -84.2655 141° Southeast  Level FlightAware Approximate
Sun 15:17:01 30.1250 -84.3069 141° Southeast 105 121 10,700  Level Jacksonville Center
Sun 15:18:00 30.0406 -84.2370 141° Southeast  Level FlightAware Approximate
Sun 15:18:01 30.1022 -84.2875 144° Southeast 100 115 11,100  Level Jacksonville Center
Sun 15:19:00 30.0095 -84.2086 142° Southeast  Level FlightAware Approximate
Sun 15:19:01 30.0797 -84.2631 137° Southeast 106 122 11,200  Level Jacksonville Center
Sun 15:20:01 30.0528 -84.2292 133° Southeast 117 135 11,000 -100 Descending Jacksonville Center
Sun 15:21:01 30.0281 -84.1953 130° Southeast 130 150 11,000  Level Jacksonville Center
Sun 15:22:01 30.0075 -84.1639 127° Southeast 141 162 11,000  Level Jacksonville Center
Sun 15:23:01 29.9808 -84.1300 132° Southeast 136 157 11,000  Level Jacksonville Center
Sun 15:24:01 29.9561 -84.0936 128° Southeast 136 157 11,000  Level Jacksonville Center
Sun 15:25:01 29.9272 -84.0597 135° Southeast 141 162 11,000  Level Jacksonville Center
Sun 15:26:01 29.9025 -84.0233 128° Southeast 141 162 11,000  Level Jacksonville Center
Sun 15:27:01 29.8778 -83.9897 130° Southeast 141 162 11,000  Level Jacksonville Center
Sun 15:28:01 29.8508 -83.9558 133° Southeast 141 162 11,000  Level Jacksonville Center
Sun 15:29:01 29.8239 -83.9197 131° Southeast 141 162 11,000  Level Jacksonville Center
Sun 15:30:01 29.7969 -83.8858 132° Southeast 146 168 11,000  Level Jacksonville Center
Sun 15:31:01 29.7703 -83.8497 130° Southeast 146 168 11,000  Level Jacksonville Center
Sun 15:32:01 29.7456 -83.8136 128° Southeast 146 168 11,000  Level Jacksonville Center
Sun 15:33:01 29.7164 -83.7797 135° Southeast 146 168 11,000  Level Jacksonville Center
Sun 15:34:01 29.6894 -83.7461 133° Southeast 146 168 11,000  Level Jacksonville Center
Sun 15:35:01 29.6625 -83.7100 131° Southeast 146 168 11,000  Level Jacksonville Center
Sun 15:36:01 29.6358 -83.6714 128° Southeast 146 168 11,000  Level Jacksonville Center
Sun 15:37:01 29.6089 -83.6403 135° Southeast 146 168 11,000  Level Jacksonville Center
Sun 15:38:01 29.5819 -83.6019 129° Southeast 146 168 11,000  Level Jacksonville Center
Sun 15:39:01 29.5550 -83.5658 131° Southeast 146 168 11,000  Level Jacksonville Center
Sun 15:40:01 29.5281 -83.5297 131° Southeast 146 168 11,000  Level Jacksonville Center
Sun 15:41:01 29.5011 -83.4914 129° Southeast 146 168 11,000  Level Jacksonville Center
Sun 15:42:01 29.4742 -83.4531 129° Southeast 146 168 11,000  Level Jacksonville Center
Sun 15:43:01 29.4469 -83.4150 129° Southeast 146 168 11,000  Level Jacksonville Center
Sun 15:44:01 29.4200 -83.3767 129° Southeast 146 168 11,000  Level Jacksonville Center
Sun 15:45:01 29.3931 -83.3406 131° Southeast 151 174 11,000  Level Jacksonville Center
Sun 15:46:01 29.3661 -83.3025 129° Southeast 151 174 11,000  Level Jacksonville Center
Sun 15:47:01 29.3350 -83.2619 131° Southeast 151 174 11,000  Level Jacksonville Center
Sun 15:48:01 29.3100 -83.2258 128° Southeast 151 174 11,000  Level Jacksonville Center
Sun 15:49:01 29.2828 -83.1878 129° Southeast 151 174 11,000  Level Jacksonville Center
Sun 15:50:01 29.2558 -83.1519 131° Southeast 151 174 11,000  Level Jacksonville Center
Sun 15:51:01 29.2286 -83.1161 131° Southeast 151 174 11,000  Level Jacksonville Center
Sun 15:52:01 29.2039 -83.0828 130° Southeast 151 174 11,000  Level Jacksonville Center
Sun 15:53:01 29.1767 -83.0447 129° Southeast 151 174 11,000 -45 Level Jacksonville Center
Sun 15:54:13 29.1433 -83.0019 132° Southeast 149 171 10,900 -50 Descending Jacksonville Center
Sun 15:55:01 29.1225 -82.9733 130° Southeast 151 174 10,900 -218 Level Jacksonville Center
Sun 15:55:08 29.1203 -82.9711 139° Southeast 152 175 10,700 -300 Descending Jacksonville Center
Sun 15:56:01 29.0933 -82.9353 131° Southeast 151 174 10,600 -197 Descending Jacksonville Center
Sun 15:56:09 29.0892 -82.9331 155° Southeast 158 182 10,500 -200 Descending Jacksonville Center
Sun 15:57:01 29.0619 -82.8972 131° Southeast 151 174 10,400 -295 Descending Jacksonville Center
Sun 15:57:10 29.0597 -82.8950 139° Southeast 162 186 10,200 -300 Descending Jacksonville Center
Sun 15:58:01 29.0328 -82.8594 131° Southeast 151 174 10,100 -295 Descending Jacksonville Center
Sun 15:58:11 29.0286 -82.8544 134° Southeast 164 189 9,900 -300 Descending Jacksonville Center
Sun 15:59:01 29.0014 -82.8214 133° Southeast 157 181 9,800 -269 Descending Jacksonville Center
Sun 15:59:18 28.9908 -82.8119 142° Southeast 164 189 9,600 -300 Descending Jacksonville Center
Sun 16:00:01 28.9700 -82.7833 130° Southeast 157 181 9,500 -197 Descending Jacksonville Center
Sun 16:00:19 28.9597 -82.7764 149° Southeast 166 191 9,400 -200 Descending Jacksonville Center
Sun 16:01:01 28.9386 -82.7456 128° Southeast 162 186 9,300 -197 Descending Jacksonville Center
Sun 16:01:20 28.9325 -82.7361 126° Southeast 165 190 9,200 -200 Descending Jacksonville Center
Sun 16:02:01 28.9072 -82.7053 133° Southeast 162 186 9,100 -197 Descending Jacksonville Center
Sun 16:02:21 28.8969 -82.6933 135° Southeast 167 192 9,000 -200 Descending Jacksonville Center
Sun 16:03:01 28.8781 -82.6672 130° Southeast 162 186 8,900  Descending Jacksonville Center
Sun 16:03:22 28.8656 -82.6531 135° Southeast 165 190 9,000 100 Climbing Jacksonville Center
Sun 16:04:01 28.8508 -82.6272 123° Southeast 162 186 9,000 35 Level Jacksonville Center
Sun 16:06:12 28.7833 -82.5500 135° Southeast 151 174 9,100 30 Climbing Tampa TRACON
Sun 16:07:18 28.7500 -82.5167 139° Southeast 149 171 9,100  Level Tampa TRACON
Sun 16:08:18 28.7167 -82.4833 139° Southeast 142 163 9,100  Level Tampa TRACON
Sun 16:09:18 28.6833 -82.4667 156° South 142 163 9,100 -50 Level Tampa TRACON
Sun 16:10:18 28.6500 -82.4333 139° Southeast 144 166 9,000 -52 Descending Tampa TRACON
Sun 16:11:13 28.6333 -82.4167 139° Southeast 147 169 9,000  Level Tampa TRACON
Sun 16:12:19 28.6000 -82.3667 127° Southeast 145 167 9,000  Level Tampa TRACON
Sun 16:13:25 28.5667 -82.3500 156° South 145 167 9,000 48 Level Tampa TRACON
Sun 16:14:25 28.5333 -82.3167 139° Southeast 146 168 9,100 50 Climbing Tampa TRACON
Sun 16:15:25 28.5000 -82.2833 139° Southeast 147 169 9,100  Level Tampa TRACON
Sun 16:16:25 28.4667 -82.2500 139° Southeast 145 167 9,100 -50 Level Tampa TRACON
Sun 16:17:25 28.4333 -82.2167 139° Southeast 146 168 9,000  Descending Tampa TRACON
Sun 16:18:25 28.4000 -82.2000 156° South 146 168 9,100  Climbing Tampa TRACON
Sun 16:19:19 28.3833 -82.1667 120° Southeast 146 168 9,000 -53 Descending Tampa TRACON
Sun 16:20:19 28.3500 -82.1500 156° South 141 162 9,000  Level Tampa TRACON
Sun 16:21:19 28.3000 -82.1167 150° Southeast 141 162 9,000  Level Tampa TRACON
Sun 16:22:19 28.2667 -82.1000 156° South 134 154 9,000 50 Level Tampa TRACON
Sun 16:23:19 28.2333 -82.1000 180° South 134 154 9,100 50 Climbing Tampa TRACON
Sun 16:24:19 28.2000 -82.0833 156° South 134 154 9,100 -52 Level Tampa TRACON
Sun 16:25:14 28.1667 -82.0667 156° South 134 154 9,000 -53 Descending Tampa TRACON
Sun 16:26:13 28.1333 -82.0667 180° South 134 154 9,000 50 Level Tampa TRACON
Sun 16:27:13 28.1000 -82.0500 156° South 134 154 9,100  Climbing Tampa TRACON
Sun 16:28:14 28.0667 -82.0333 156° South 136 157 9,000  Descending Tampa TRACON
Sun 16:29:13 28.0333 -82.0167 156° South 134 154 9,100  Climbing Tampa TRACON
Sun 16:30:14 27.9833 -82.0167 180° South 136 157 9,000 -104 Descending Tampa TRACON
Sun 16:31:08 27.9667 -81.9833 120° Southeast 147 169 8,900 -211 Descending Tampa TRACON
Sun 16:32:08 27.9333 -81.9667 156° South 154 177 8,600 -277 Descending Tampa TRACON
Sun 16:34:23 27.8514 -81.8917 141° Southeast 130 150 8,000 -277 Descending Miami Center
Sun 16:35:23 27.8128 -81.8617 146° Southeast 155 178 7,700 -250 Descending Miami Center
Sun 16:36:23 27.7847 -81.8322 137° Southeast 165 190 7,500 -150 Descending Miami Center
Sun 16:37:23 27.7525 -81.7958 135° Southeast 159 183 7,400 -250 Descending Miami Center
Sun 16:38:23 27.7164 -81.7589 138° Southeast 159 183 7,000 -150 Descending Miami Center
Sun 16:39:23 27.6839 -81.7247 137° Southeast 159 183 7,100 50 Climbing Miami Center
Sun 16:40:23 27.6558 -81.6908 133° Southeast 159 183 7,100 -50 Level Miami Center
Sun 16:41:23 27.6258 -81.6544 133° Southeast 159 183 7,000 -50 Descending Miami Center
Sun 16:42:23 27.5978 -81.6228 135° Southeast 159 183 7,000 -50 Level Miami Center
Sun 16:43:24 27.5675 -81.5886 135° Southeast 159 183 6,900  Descending Miami Center
Sun 16:44:23 27.5350 -81.5592 141° Southeast 159 183 7,000 202 Climbing Miami Center
Sun 16:45:23 27.5067 -81.5322 140° Southeast 148 170 7,300 200 Climbing Miami Center
Sun 16:46:23 27.4764 -81.5053 142° Southeast 143 165 7,400 50 Climbing Miami Center
Sun 16:47:23 27.4439 -81.4783 144° Southeast 148 170 7,400  Level Miami Center
Sun 16:48:23 27.4114 -81.4489 141° Southeast 148 170 7,400  Level Miami Center
Sun 16:49:23 27.3808 -81.4219 142° Southeast 148 170 7,400  Level Miami Center
Sun 16:50:23 27.3506 -81.3858 133° Southeast 148 170 7,400 -300 Level Miami Center
Sun 16:51:23 27.3228 -81.3450 127° Southeast 158 182 6,800 -550 Descending Miami Center
Sun 16:52:23 27.2928 -81.2994 127° Southeast 174 200 6,300 -400 Descending Miami Center
Sun 16:53:23 27.2650 -81.2564 126° Southeast 184 212 6,000 -250 Descending Miami Center
Sun 16:54:23 27.2325 -81.2269 141° Southeast 173 199 5,800 -250 Descending Miami Center
Sun 16:55:23 27.1978 -81.1953 141° Southeast 168 193 5,500 -150 Descending Miami Center
Sun 16:56:23 27.1592 -81.1658 146° Southeast 158 182 5,500  Level Miami Center
Sun 16:57:23 27.1244 -81.1414 148° Southeast 158 182 5,500  Level Miami Center
Sun 16:58:23 27.0872 -81.1236 157° South 150 173 5,500  Level Miami Center
Sun 16:59:23 27.0544 -81.1036 151° Southeast 150 173 5,500  Level Miami Center
Sun 17:00:23 27.0197 -81.0814 150° Southeast 150 173 5,500  Level Miami Center
Sun 17:01:23 26.9808 -81.0544 148° Southeast 145 167 5,500  Level Miami Center
Sun 17:02:23 26.9564 -81.0303 139° Southeast 145 167 5,500  Level Miami Center
Sun 17:03:23 26.9306 -80.9875 124° Southeast 145 167 5,500  Level Miami Center
Sun 17:04:23 26.9003 -80.9514 133° Southeast 155 178 5,500  Level Miami Center
Sun 17:05:23 26.8700 -80.9086 128° Southeast 155 178 5,500  Level Miami Center
Sun 17:06:23 26.8419 -80.8703 129° Southeast 160 184 5,500  Level Miami Center
Sun 17:07:23 26.8136 -80.8344 132° Southeast 160 184 5,500 -50 Level Miami Center
Sun 17:08:23 26.7875 -80.7986 129° Southeast 160 184 5,400 -200 Descending Miami Center
Sun 17:09:23 26.7572 -80.7628 133° Southeast 160 184 5,100 -300 Descending Miami Center
Sun 17:10:23 26.7164 -80.7194 137° Southeast 171 197 4,800 -300 Descending Miami Center
Sun 17:11:23 26.6861 -80.6789 130° Southeast 171 197 4,500 -300 Descending Miami Center
Sun 17:12:23 26.6558 -80.6408 132° Southeast 171 197 4,200 -350 Descending Miami Center
Sun 17:13:23 26.6214 -80.6025 135° Southeast 171 197 3,800 -350 Descending Miami Center
Sun 17:14:23 26.5825 -80.5733 146° Southeast 165 190 3,500 -333 Descending Miami Center
Sun 17:14:53 26.5642 -80.5589 145° Southeast 166 191 3,300 -300 Descending Miami Center
Sun 17:15:23 26.5456 -80.5444 145° Southeast 165 190 3,200 -265 Descending Miami Center
Sun 17:16:01 26.5189 -80.5297 154° Southeast 160 184 3,000 -200 Descending Miami Center
Sun 17:16:23 26.5067 -80.5200 145° Southeast 165 190 3,000  Level Miami Center
Sun 17:17:02 26.4817 -80.5100 160° South 153 176 3,000  Level Miami Center
Sun 17:17:23 26.4694 -80.4956 133° Southeast 160 184 3,000 -90 Level Miami Center
Sun 17:18:09 26.4469 -80.4786 146° Southeast 146 168 2,900 -100 Descending Miami Center
Sun 17:18:23 26.4411 -80.4669 119° Southeast 155 178 2,900 -197 Level Miami Center
Sun 17:19:10 26.4144 -80.4406 138° Southeast 157 181 2,700 -200 Descending Miami Center
Sun 17:19:23 26.4106 -80.4311 115° Southeast 160 184 2,700 -290 Level Miami Center
Sun 17:20:12 26.3947 -80.4006 120° Southeast 163 188 2,400 -327 Descending Miami Center
Sun 17:21:13 26.3811 -80.3514 107° East 159 183 2,100 -197 Descending Miami Center
Sun 17:22:14 26.3717 -80.3072 103° East 147 169 2,000 -49 Descending Miami Center
Sun 17:23:15 26.3561 -80.2650 112° Southeast 138 159 2,000  Level Miami Center
Sun 17:24:16 26.3444 -80.2275 109° East 129 148 2,000  Level Miami Center
Sun 17:26:00 26.3011 -80.1682 129° Southeast  Level FlightAware Approximate
Sun 17:33:00 26.2471 -80.1111 138° Southeast  Level Estimated

Login

Don't have an account? Register now (free) for customized features, flight alerts, and more!